sensor_id;sensor_type;location;lat;lon;timestamp;P1;durP1;ratioP1;P2;durP2;ratioP2
80340;SDS011;69656;44.498;0.166;2023-11-18T00:04:07;12.23;;;6.53;;
80340;SDS011;69656;44.498;0.166;2023-11-18T00:09:41;13.40;;;6.80;;
80340;SDS011;69656;44.498;0.166;2023-11-18T00:15:14;13.20;;;7.13;;
80340;SDS011;69656;44.498;0.166;2023-11-18T00:20:47;12.87;;;7.30;;
80340;SDS011;69656;44.498;0.166;2023-11-18T00:26:20;12.80;;;7.77;;
80340;SDS011;69656;44.498;0.166;2023-11-18T00:31:53;13.67;;;7.13;;
80340;SDS011;69656;44.498;0.166;2023-11-18T00:37:26;11.87;;;7.70;;
80340;SDS011;69656;44.498;0.166;2023-11-18T00:42:59;17.60;;;9.07;;
80340;SDS011;69656;44.498;0.166;2023-11-18T00:48:31;11.27;;;7.10;;
80340;SDS011;69656;44.498;0.166;2023-11-18T00:54:05;12.20;;;7.13;;
80340;SDS011;69656;44.498;0.166;2023-11-18T00:59:41;9.43;;;6.43;;
80340;SDS011;69656;44.498;0.166;2023-11-18T01:05:10;10.10;;;6.70;;
80340;SDS011;69656;44.498;0.166;2023-11-18T01:10:42;12.20;;;5.97;;
80340;SDS011;69656;44.498;0.166;2023-11-18T01:16:14;11.43;;;6.20;;
80340;SDS011;69656;44.498;0.166;2023-11-18T01:21:47;11.13;;;6.47;;
80340;SDS011;69656;44.498;0.166;2023-11-18T01:27:20;9.97;;;6.10;;
80340;SDS011;69656;44.498;0.166;2023-11-18T01:32:53;15.20;;;7.07;;
80340;SDS011;69656;44.498;0.166;2023-11-18T01:38:26;13.43;;;6.67;;
80340;SDS011;69656;44.498;0.166;2023-11-18T01:43:58;10.97;;;6.33;;
80340;SDS011;69656;44.498;0.166;2023-11-18T01:49:31;15.37;;;6.97;;
80340;SDS011;69656;44.498;0.166;2023-11-18T01:55:03;11.07;;;6.40;;
80340;SDS011;69656;44.498;0.166;2023-11-18T02:00:36;13.10;;;6.67;;
80340;SDS011;69656;44.498;0.166;2023-11-18T02:06:09;11.83;;;6.30;;
80340;SDS011;69656;44.498;0.166;2023-11-18T02:11:43;17.93;;;7.07;;
80340;SDS011;69656;44.498;0.166;2023-11-18T02:17:17;9.30;;;5.53;;
80340;SDS011;69656;44.498;0.166;2023-11-18T02:22:47;14.93;;;6.27;;
80340;SDS011;69656;44.498;0.166;2023-11-18T02:28:21;8.33;;;4.30;;
80340;SDS011;69656;44.498;0.166;2023-11-18T02:33:56;8.43;;;5.20;;
80340;SDS011;69656;44.498;0.166;2023-11-18T02:39:29;10.43;;;5.50;;
80340;SDS011;69656;44.498;0.166;2023-11-18T02:44:59;10.80;;;5.50;;
80340;SDS011;69656;44.498;0.166;2023-11-18T02:50:32;13.33;;;5.00;;
80340;SDS011;69656;44.498;0.166;2023-11-18T02:56:04;11.97;;;5.33;;
80340;SDS011;69656;44.498;0.166;2023-11-18T03:01:37;18.03;;;6.00;;
80340;SDS011;69656;44.498;0.166;2023-11-18T03:07:09;17.73;;;6.30;;
80340;SDS011;69656;44.498;0.166;2023-11-18T03:12:42;12.33;;;6.00;;
80340;SDS011;69656;44.498;0.166;2023-11-18T03:18:15;12.17;;;5.80;;
80340;SDS011;69656;44.498;0.166;2023-11-18T03:23:49;12.17;;;5.97;;
80340;SDS011;69656;44.498;0.166;2023-11-18T03:29:23;12.60;;;5.60;;
80340;SDS011;69656;44.498;0.166;2023-11-18T03:34:56;9.27;;;5.60;;
80340;SDS011;69656;44.498;0.166;2023-11-18T03:40:29;16.17;;;6.73;;
80340;SDS011;69656;44.498;0.166;2023-11-18T03:46:03;13.13;;;6.10;;
80340;SDS011;69656;44.498;0.166;2023-11-18T03:51:34;16.10;;;6.83;;
80340;SDS011;69656;44.498;0.166;2023-11-18T03:57:08;11.70;;;6.00;;
80340;SDS011;69656;44.498;0.166;2023-11-18T04:02:40;12.87;;;6.70;;
80340;SDS011;69656;44.498;0.166;2023-11-18T04:08:12;14.60;;;7.90;;
80340;SDS011;69656;44.498;0.166;2023-11-18T04:13:45;12.13;;;6.90;;
80340;SDS011;69656;44.498;0.166;2023-11-18T04:19:18;15.60;;;6.87;;
80340;SDS011;69656;44.498;0.166;2023-11-18T04:24:52;19.87;;;7.20;;
80340;SDS011;69656;44.498;0.166;2023-11-18T04:30:24;11.70;;;6.87;;
80340;SDS011;69656;44.498;0.166;2023-11-18T04:35:57;10.13;;;5.87;;
80340;SDS011;69656;44.498;0.166;2023-11-18T04:41:30;12.77;;;5.43;;
80340;SDS011;69656;44.498;0.166;2023-11-18T04:47:03;9.97;;;6.00;;
80340;SDS011;69656;44.498;0.166;2023-11-18T04:52:35;20.93;;;6.83;;
80340;SDS011;69656;44.498;0.166;2023-11-18T04:58:07;10.57;;;5.93;;
80340;SDS011;69656;44.498;0.166;2023-11-18T05:03:40;11.07;;;6.30;;
80340;SDS011;69656;44.498;0.166;2023-11-18T05:09:12;10.97;;;6.10;;
80340;SDS011;69656;44.498;0.166;2023-11-18T05:14:44;14.60;;;5.73;;
80340;SDS011;69656;44.498;0.166;2023-11-18T05:20:16;15.80;;;6.77;;
80340;SDS011;69656;44.498;0.166;2023-11-18T05:25:49;12.80;;;5.97;;
80340;SDS011;69656;44.498;0.166;2023-11-18T05:31:22;14.77;;;5.60;;
80340;SDS011;69656;44.498;0.166;2023-11-18T05:36:55;9.10;;;5.30;;
80340;SDS011;69656;44.498;0.166;2023-11-18T05:42:27;11.00;;;5.43;;
80340;SDS011;69656;44.498;0.166;2023-11-18T05:47:59;14.77;;;5.90;;
80340;SDS011;69656;44.498;0.166;2023-11-18T05:53:31;13.30;;;5.40;;
80340;SDS011;69656;44.498;0.166;2023-11-18T05:59:05;12.07;;;5.60;;
80340;SDS011;69656;44.498;0.166;2023-11-18T06:04:38;13.47;;;6.53;;
80340;SDS011;69656;44.498;0.166;2023-11-18T06:10:10;15.33;;;6.77;;
80340;SDS011;69656;44.498;0.166;2023-11-18T06:15:42;17.33;;;7.70;;
80340;SDS011;69656;44.498;0.166;2023-11-18T06:21:16;22.10;;;8.17;;
80340;SDS011;69656;44.498;0.166;2023-11-18T06:26:49;21.37;;;7.77;;
80340;SDS011;69656;44.498;0.166;2023-11-18T06:32:21;16.30;;;8.30;;
80340;SDS011;69656;44.498;0.166;2023-11-18T06:37:54;24.80;;;12.00;;
80340;SDS011;69656;44.498;0.166;2023-11-18T06:43:28;24.90;;;10.63;;
80340;SDS011;69656;44.498;0.166;2023-11-18T06:49:01;18.73;;;9.33;;
80340;SDS011;69656;44.498;0.166;2023-11-18T06:54:33;16.67;;;8.17;;
80340;SDS011;69656;44.498;0.166;2023-11-18T07:00:06;23.63;;;10.83;;
80340;SDS011;69656;44.498;0.166;2023-11-18T07:05:38;10.37;;;6.27;;
80340;SDS011;69656;44.498;0.166;2023-11-18T07:11:10;17.77;;;8.57;;
80340;SDS011;69656;44.498;0.166;2023-11-18T07:16:42;24.87;;;8.80;;
80340;SDS011;69656;44.498;0.166;2023-11-18T07:22:14;16.83;;;8.47;;
80340;SDS011;69656;44.498;0.166;2023-11-18T07:27:46;15.10;;;7.40;;
80340;SDS011;69656;44.498;0.166;2023-11-18T07:33:20;13.00;;;8.07;;
80340;SDS011;69656;44.498;0.166;2023-11-18T07:38:53;15.13;;;6.77;;
80340;SDS011;69656;44.498;0.166;2023-11-18T07:44:27;12.00;;;7.37;;
80340;SDS011;69656;44.498;0.166;2023-11-18T07:50:00;9.87;;;6.60;;
80340;SDS011;69656;44.498;0.166;2023-11-18T07:55:32;12.97;;;6.60;;
80340;SDS011;69656;44.498;0.166;2023-11-18T08:01:05;11.93;;;5.43;;
80340;SDS011;69656;44.498;0.166;2023-11-18T08:06:39;9.23;;;4.40;;
80340;SDS011;69656;44.498;0.166;2023-11-18T08:12:12;12.20;;;6.87;;
80340;SDS011;69656;44.498;0.166;2023-11-18T08:17:44;7.00;;;4.30;;
80340;SDS011;69656;44.498;0.166;2023-11-18T08:23:16;8.20;;;5.53;;
80340;SDS011;69656;44.498;0.166;2023-11-18T08:28:49;7.47;;;5.07;;
80340;SDS011;69656;44.498;0.166;2023-11-18T08:34:21;22.10;;;8.90;;
80340;SDS011;69656;44.498;0.166;2023-11-18T08:39:53;12.63;;;3.00;;
80340;SDS011;69656;44.498;0.166;2023-11-18T08:45:26;7.80;;;2.87;;
80340;SDS011;69656;44.498;0.166;2023-11-18T08:50:58;3.73;;;2.17;;
80340;SDS011;69656;44.498;0.166;2023-11-18T08:56:30;5.43;;;2.00;;
80340;SDS011;69656;44.498;0.166;2023-11-18T09:02:03;4.17;;;1.87;;
80340;SDS011;69656;44.498;0.166;2023-11-18T09:07:35;5.90;;;2.30;;
80340;SDS011;69656;44.498;0.166;2023-11-18T09:13:08;3.60;;;2.23;;
80340;SDS011;69656;44.498;0.166;2023-11-18T09:18:42;5.67;;;2.60;;
80340;SDS011;69656;44.498;0.166;2023-11-18T09:24:13;4.50;;;2.27;;
80340;SDS011;69656;44.498;0.166;2023-11-18T09:29:45;2.97;;;2.63;;
80340;SDS011;69656;44.498;0.166;2023-11-18T09:35:19;4.50;;;2.77;;
80340;SDS011;69656;44.498;0.166;2023-11-18T09:40:52;2.57;;;2.10;;
80340;SDS011;69656;44.498;0.166;2023-11-18T09:46:24;3.73;;;2.33;;
80340;SDS011;69656;44.498;0.166;2023-11-18T09:51:57;3.13;;;2.17;;
80340;SDS011;69656;44.498;0.166;2023-11-18T09:57:31;2.60;;;2.00;;
80340;SDS011;69656;44.498;0.166;2023-11-18T10:03:02;2.37;;;2.17;;
80340;SDS011;69656;44.498;0.166;2023-11-18T10:08:35;3.10;;;2.07;;
80340;SDS011;69656;44.498;0.166;2023-11-18T10:14:08;4.67;;;2.10;;
80340;SDS011;69656;44.498;0.166;2023-11-18T10:25:14;5.03;;;2.20;;
80340;SDS011;69656;44.498;0.166;2023-11-18T10:30:46;2.70;;;2.13;;
80340;SDS011;69656;44.498;0.166;2023-11-18T10:36:20;2.93;;;2.07;;
80340;SDS011;69656;44.498;0.166;2023-11-18T10:41:54;5.13;;;2.20;;
80340;SDS011;69656;44.498;0.166;2023-11-18T10:47:27;4.40;;;2.90;;
80340;SDS011;69656;44.498;0.166;2023-11-18T10:53:00;3.77;;;1.93;;
80340;SDS011;69656;44.498;0.166;2023-11-18T10:58:35;6.40;;;2.87;;
80340;SDS011;69656;44.498;0.166;2023-11-18T11:04:06;3.07;;;2.00;;
80340;SDS011;69656;44.498;0.166;2023-11-18T11:09:39;5.20;;;2.57;;
80340;SDS011;69656;44.498;0.166;2023-11-18T11:15:12;4.03;;;2.03;;
80340;SDS011;69656;44.498;0.166;2023-11-18T11:20:47;6.07;;;3.47;;
80340;SDS011;69656;44.498;0.166;2023-11-18T11:26:25;5.20;;;2.17;;
80340;SDS011;69656;44.498;0.166;2023-11-18T11:31:52;3.87;;;2.10;;
80340;SDS011;69656;44.498;0.166;2023-11-18T11:37:24;3.90;;;2.13;;
80340;SDS011;69656;44.498;0.166;2023-11-18T11:42:57;6.20;;;2.37;;
80340;SDS011;69656;44.498;0.166;2023-11-18T11:48:30;5.70;;;2.30;;
80340;SDS011;69656;44.498;0.166;2023-11-18T11:54:06;4.53;;;2.20;;
80340;SDS011;69656;44.498;0.166;2023-11-18T11:59:35;3.73;;;2.70;;
80340;SDS011;69656;44.498;0.166;2023-11-18T12:05:07;5.90;;;2.33;;
80340;SDS011;69656;44.498;0.166;2023-11-18T12:10:39;4.13;;;2.60;;
80340;SDS011;69656;44.498;0.166;2023-11-18T12:16:13;5.23;;;2.30;;
80340;SDS011;69656;44.498;0.166;2023-11-18T12:21:54;4.87;;;2.27;;
80340;SDS011;69656;44.498;0.166;2023-11-18T12:33:00;7.83;;;2.17;;
80340;SDS011;69656;44.498;0.166;2023-11-18T12:38:33;3.83;;;2.20;;
80340;SDS011;69656;44.498;0.166;2023-11-18T12:44:01;4.53;;;2.17;;
80340;SDS011;69656;44.498;0.166;2023-11-18T12:49:30;3.83;;;2.10;;
80340;SDS011;69656;44.498;0.166;2023-11-18T12:55:05;5.20;;;2.00;;
80340;SDS011;69656;44.498;0.166;2023-11-18T13:00:37;3.13;;;1.80;;
80340;SDS011;69656;44.498;0.166;2023-11-18T13:06:10;5.17;;;2.03;;
80340;SDS011;69656;44.498;0.166;2023-11-18T13:11:43;2.30;;;1.73;;
80340;SDS011;69656;44.498;0.166;2023-11-18T13:17:15;4.07;;;2.70;;
80340;SDS011;69656;44.498;0.166;2023-11-18T13:22:48;4.13;;;2.07;;
80340;SDS011;69656;44.498;0.166;2023-11-18T13:28:22;3.03;;;1.77;;
80340;SDS011;69656;44.498;0.166;2023-11-18T13:33:53;4.30;;;1.80;;
80340;SDS011;69656;44.498;0.166;2023-11-18T13:39:26;2.73;;;1.80;;
80340;SDS011;69656;44.498;0.166;2023-11-18T13:44:59;3.20;;;1.77;;
80340;SDS011;69656;44.498;0.166;2023-11-18T13:50:33;3.83;;;1.87;;
80340;SDS011;69656;44.498;0.166;2023-11-18T13:56:04;5.03;;;2.10;;
80340;SDS011;69656;44.498;0.166;2023-11-18T14:01:36;4.00;;;1.67;;
80340;SDS011;69656;44.498;0.166;2023-11-18T14:07:09;3.70;;;2.43;;
80340;SDS011;69656;44.498;0.166;2023-11-18T14:18:16;3.40;;;2.17;;
80340;SDS011;69656;44.498;0.166;2023-11-18T14:23:50;3.43;;;2.57;;
80340;SDS011;69656;44.498;0.166;2023-11-18T14:29:24;2.03;;;1.70;;
80340;SDS011;69656;44.498;0.166;2023-11-18T14:34:57;6.60;;;2.17;;
80340;SDS011;69656;44.498;0.166;2023-11-18T14:40:31;3.97;;;2.70;;
80340;SDS011;69656;44.498;0.166;2023-11-18T14:46:04;5.23;;;2.30;;
80340;SDS011;69656;44.498;0.166;2023-11-18T14:51:37;6.90;;;2.87;;
80340;SDS011;69656;44.498;0.166;2023-11-18T14:57:09;4.33;;;2.50;;
80340;SDS011;69656;44.498;0.166;2023-11-18T15:02:42;5.07;;;2.30;;
80340;SDS011;69656;44.498;0.166;2023-11-18T15:08:15;4.27;;;2.20;;
80340;SDS011;69656;44.498;0.166;2023-11-18T15:13:47;6.40;;;2.53;;
80340;SDS011;69656;44.498;0.166;2023-11-18T15:19:19;5.57;;;2.33;;
80340;SDS011;69656;44.498;0.166;2023-11-18T15:24:52;5.10;;;2.80;;
80340;SDS011;69656;44.498;0.166;2023-11-18T15:30:24;3.70;;;2.40;;
80340;SDS011;69656;44.498;0.166;2023-11-18T15:35:57;5.30;;;2.57;;
80340;SDS011;69656;44.498;0.166;2023-11-18T15:41:28;9.20;;;2.23;;
80340;SDS011;69656;44.498;0.166;2023-11-18T15:47:00;4.50;;;2.00;;
80340;SDS011;69656;44.498;0.166;2023-11-18T15:52:33;4.77;;;2.40;;
80340;SDS011;69656;44.498;0.166;2023-11-18T15:58:05;12.13;;;5.60;;
80340;SDS011;69656;44.498;0.166;2023-11-18T16:03:39;9.33;;;5.03;;
80340;SDS011;69656;44.498;0.166;2023-11-18T16:09:11;4.53;;;2.50;;
80340;SDS011;69656;44.498;0.166;2023-11-18T16:14:44;5.20;;;2.27;;
80340;SDS011;69656;44.498;0.166;2023-11-18T16:20:16;5.07;;;2.37;;
80340;SDS011;69656;44.498;0.166;2023-11-18T16:25:49;4.33;;;2.70;;
80340;SDS011;69656;44.498;0.166;2023-11-18T16:31:21;4.53;;;2.60;;
80340;SDS011;69656;44.498;0.166;2023-11-18T16:36:53;5.43;;;2.80;;
80340;SDS011;69656;44.498;0.166;2023-11-18T16:42:25;6.90;;;3.80;;
80340;SDS011;69656;44.498;0.166;2023-11-18T16:47:58;5.23;;;2.90;;
80340;SDS011;69656;44.498;0.166;2023-11-18T16:53:31;4.33;;;2.90;;
80340;SDS011;69656;44.498;0.166;2023-11-18T16:59:03;6.23;;;3.07;;
80340;SDS011;69656;44.498;0.166;2023-11-18T17:04:37;7.53;;;5.53;;
80340;SDS011;69656;44.498;0.166;2023-11-18T17:10:09;9.03;;;4.80;;
80340;SDS011;69656;44.498;0.166;2023-11-18T17:15:41;20.10;;;9.40;;
80340;SDS011;69656;44.498;0.166;2023-11-18T17:21:14;25.50;;;14.20;;
80340;SDS011;69656;44.498;0.166;2023-11-18T17:26:47;26.63;;;14.47;;
80340;SDS011;69656;44.498;0.166;2023-11-18T17:32:21;24.93;;;12.53;;
80340;SDS011;69656;44.498;0.166;2023-11-18T17:37:53;14.10;;;8.67;;
80340;SDS011;69656;44.498;0.166;2023-11-18T17:43:25;7.47;;;4.63;;
80340;SDS011;69656;44.498;0.166;2023-11-18T17:48:58;6.67;;;4.43;;
80340;SDS011;69656;44.498;0.166;2023-11-18T17:54:32;7.73;;;3.90;;
80340;SDS011;69656;44.498;0.166;2023-11-18T18:00:05;11.97;;;3.47;;
80340;SDS011;69656;44.498;0.166;2023-11-18T18:05:39;5.87;;;3.37;;
80340;SDS011;69656;44.498;0.166;2023-11-18T18:11:12;4.60;;;3.07;;
80340;SDS011;69656;44.498;0.166;2023-11-18T18:16:44;9.43;;;3.70;;
80340;SDS011;69656;44.498;0.166;2023-11-18T18:22:17;5.73;;;3.20;;
80340;SDS011;69656;44.498;0.166;2023-11-18T18:27:49;7.83;;;3.93;;
80340;SDS011;69656;44.498;0.166;2023-11-18T18:33:22;6.60;;;3.53;;
80340;SDS011;69656;44.498;0.166;2023-11-18T18:38:54;8.73;;;3.63;;
80340;SDS011;69656;44.498;0.166;2023-11-18T18:44:26;6.73;;;4.17;;
80340;SDS011;69656;44.498;0.166;2023-11-18T18:49:58;10.00;;;4.67;;
80340;SDS011;69656;44.498;0.166;2023-11-18T18:55:31;12.43;;;4.30;;
80340;SDS011;69656;44.498;0.166;2023-11-18T19:01:06;12.00;;;4.30;;
80340;SDS011;69656;44.498;0.166;2023-11-18T19:06:37;9.90;;;5.10;;
80340;SDS011;69656;44.498;0.166;2023-11-18T19:12:08;14.57;;;6.30;;
80340;SDS011;69656;44.498;0.166;2023-11-18T19:17:42;12.97;;;5.83;;
80340;SDS011;69656;44.498;0.166;2023-11-18T19:23:14;9.50;;;5.13;;
80340;SDS011;69656;44.498;0.166;2023-11-18T19:28:47;11.90;;;6.27;;
80340;SDS011;69656;44.498;0.166;2023-11-18T19:34:18;11.80;;;5.40;;
80340;SDS011;69656;44.498;0.166;2023-11-18T19:39:51;20.47;;;10.10;;
80340;SDS011;69656;44.498;0.166;2023-11-18T19:45:24;23.00;;;9.63;;
80340;SDS011;69656;44.498;0.166;2023-11-18T19:50:57;17.17;;;9.13;;
80340;SDS011;69656;44.498;0.166;2023-11-18T19:56:30;18.03;;;7.77;;
80340;SDS011;69656;44.498;0.166;2023-11-18T20:02:01;20.17;;;11.23;;
80340;SDS011;69656;44.498;0.166;2023-11-18T20:07:34;17.77;;;7.90;;
80340;SDS011;69656;44.498;0.166;2023-11-18T20:13:07;20.33;;;7.57;;
80340;SDS011;69656;44.498;0.166;2023-11-18T20:18:39;20.23;;;10.47;;
80340;SDS011;69656;44.498;0.166;2023-11-18T20:24:13;21.33;;;9.90;;
80340;SDS011;69656;44.498;0.166;2023-11-18T20:29:46;23.47;;;10.30;;
80340;SDS011;69656;44.498;0.166;2023-11-18T20:35:18;21.00;;;9.10;;
80340;SDS011;69656;44.498;0.166;2023-11-18T20:40:50;18.27;;;9.00;;
80340;SDS011;69656;44.498;0.166;2023-11-18T20:46:24;16.67;;;8.33;;
80340;SDS011;69656;44.498;0.166;2023-11-18T20:51:57;16.93;;;8.77;;
80340;SDS011;69656;44.498;0.166;2023-11-18T21:03:02;17.17;;;9.23;;
80340;SDS011;69656;44.498;0.166;2023-11-18T21:08:35;14.80;;;7.73;;
80340;SDS011;69656;44.498;0.166;2023-11-18T21:14:08;17.77;;;8.57;;
80340;SDS011;69656;44.498;0.166;2023-11-18T21:19:41;21.10;;;8.23;;
80340;SDS011;69656;44.498;0.166;2023-11-18T21:25:12;16.13;;;7.60;;
80340;SDS011;69656;44.498;0.166;2023-11-18T21:30:46;14.47;;;7.93;;
80340;SDS011;69656;44.498;0.166;2023-11-18T21:36:18;13.93;;;7.20;;
80340;SDS011;69656;44.498;0.166;2023-11-18T21:41:50;20.90;;;10.07;;
80340;SDS011;69656;44.498;0.166;2023-11-18T21:47:23;18.63;;;8.90;;
80340;SDS011;69656;44.498;0.166;2023-11-18T21:52:55;24.13;;;11.03;;
80340;SDS011;69656;44.498;0.166;2023-11-18T21:58:28;18.40;;;8.77;;
80340;SDS011;69656;44.498;0.166;2023-11-18T22:04:01;15.80;;;8.63;;
80340;SDS011;69656;44.498;0.166;2023-11-18T22:09:34;12.47;;;8.27;;
80340;SDS011;69656;44.498;0.166;2023-11-18T22:15:06;19.13;;;9.50;;
80340;SDS011;69656;44.498;0.166;2023-11-18T22:20:39;15.10;;;8.57;;
80340;SDS011;69656;44.498;0.166;2023-11-18T22:26:11;17.80;;;9.10;;
80340;SDS011;69656;44.498;0.166;2023-11-18T22:31:43;21.77;;;9.80;;
80340;SDS011;69656;44.498;0.166;2023-11-18T22:37:16;26.57;;;10.50;;
80340;SDS011;69656;44.498;0.166;2023-11-18T22:42:49;22.37;;;11.10;;
80340;SDS011;69656;44.498;0.166;2023-11-18T22:48:22;24.20;;;12.47;;
80340;SDS011;69656;44.498;0.166;2023-11-18T22:53:54;24.73;;;11.47;;
80340;SDS011;69656;44.498;0.166;2023-11-18T22:59:26;23.00;;;12.93;;
80340;SDS011;69656;44.498;0.166;2023-11-18T23:04:59;23.90;;;11.50;;
80340;SDS011;69656;44.498;0.166;2023-11-18T23:10:31;21.20;;;12.07;;
80340;SDS011;69656;44.498;0.166;2023-11-18T23:16:03;26.80;;;12.40;;
80340;SDS011;69656;44.498;0.166;2023-11-18T23:21:37;23.17;;;12.83;;
80340;SDS011;69656;44.498;0.166;2023-11-18T23:27:09;22.83;;;12.23;;
80340;SDS011;69656;44.498;0.166;2023-11-18T23:32:41;26.93;;;13.83;;
80340;SDS011;69656;44.498;0.166;2023-11-18T23:38:14;26.33;;;12.53;;
80340;SDS011;69656;44.498;0.166;2023-11-18T23:43:47;24.53;;;12.67;;
80340;SDS011;69656;44.498;0.166;2023-11-18T23:49:19;30.20;;;11.63;;
80340;SDS011;69656;44.498;0.166;2023-11-18T23:54:52;27.47;;;12.93;;
